Disclaimer

Please do not use the information listed here in-flight or in-navigation, as they are not provided to us by the airports but are provided by volunteers, so they might be outdated.

Search


Regions


Airport information page

Radio informations:
Tower (TWR) - 118.5 MHz
Automatic Terminal Information Service (ATIS) - 127.8 MHz
Approach (APP) - 119.75 MHz

Airport informations:
Latitude: 24° 45' 52.37" N
Longitude: 107° 28' 28.98" W
Elevation: 108 feet - 33 meters
Operating hours: Remarks
Operating agency: Military-civil joint use airport
Timezone: UTC-7(-6DT) - First Sunday in April to the last Saturday in October
Fuel: Jet A1+, Jet A1 with icing inhibitor.

100/130 octane gasoline, leaded, MIL-L-5572F (GREEN)

80/87 octane gasoline, leaded, MIL-L-5572F (RED)

Runway information:
02/20 - 7546 x 148 feet< - >2300 x 45 meters

Recent METARs:
MMCL 162247Z 21010KT 10SM OVC250 27/14 A2991 RMK 8/007 HZY
MMCL 162247Z 21010KT 10SM OVC250 27/14 A2991 RMK 8/007 HZY
MMCL 162347Z 26003KT 10SM OVC250 26/14 A2992 RMK SLP130 52004 904 8/007 HZY

Airport on the map: